^^
Saratoga-Weather Station Historical Data
Daily Summary for October 16, 2020 Units:  Both    English   Metric
Daily Weekly Monthly Yearly Custom
  High: Low: Average:
Temperature: 48.7 °F /  9.3 °C 48.4 °F /  9.1 °C 48.7 °F /  9.3 °C
Dew Point: 45.7 °F /  7.6 °C 45.1 °F /  7.3 °C 45.3 °F /  7.4 °C
Humidity: 90% 88% 88%
Wind Speed: 4mph /  6.4km/h - 1.1mph /  1.8km/h
Wind Gust: 9mph /  14.5km/h - -
Wind- - SSW
Pressure: 30.1 in /  1018.3 hPa 30.1 in /  1018.0 hPa -
Precipitation: 0 in /  0.0 mm    
Historical Graphs
 
 
Tabular Data for October 16, 2020
Time Temperature Dew Point Pressure Wind Wind Speed Wind Gust Humidity Rainfall Rate (Hourly) solar
00:01 48.4 °F /  9.1 °C 45.5 °F /  7.5 °C 30.1in /  1018.0hPa SSE 2mph /  3.2km/h 2mph /  3.2km/h 90% 0in /  0.0mm 0 W/m2
00:06 48.4 °F /  9.1 °C 45.5 °F /  7.5 °C 30.1in /  1018.0hPa NW 2mph /  3.2km/h 2mph /  3.2km/h 90% 0in /  0.0mm 0 W/m2
00:11 48.4 °F /  9.1 °C 45.3 °F /  7.4 °C 30.1in /  1018.0hPa NE 2mph /  3.2km/h 3mph /  4.8km/h 89% 0in /  0.0mm 0 W/m2
00:17 48.4 °F /  9.1 °C 45.3 °F /  7.4 °C 30.1in /  1018.0hPa East 0.9mph /  1.4km/h 2mph /  3.2km/h 89% 0in /  0.0mm 0 W/m2
00:22 48.4 °F /  9.1 °C 45.3 °F /  7.4 °C 30.1in /  1018.0hPa NW 0.9mph /  1.4km/h 3mph /  4.8km/h 89% 0in /  0.0mm 0 W/m2
00:27 48.4 °F /  9.1 °C 45.3 °F /  7.4 °C 30.1in /  1018.0hPa North 2.9mph /  4.7km/h 4mph /  6.4km/h 89% 0in /  0.0mm 0 W/m2
00:32 48.6 °F /  9.2 °C 45.5 °F /  7.5 °C 30.1in /  1018.0hPa SW 2.9mph /  4.7km/h 4mph /  6.4km/h 89% 0in /  0.0mm 0 W/m2
00:37 48.4 °F /  9.1 °C 45.3 °F /  7.4 °C 30.1in /  1018.0hPa ENE 0.9mph /  1.4km/h 3mph /  4.8km/h 89% 0in /  0.0mm 0 W/m2
00:42 48.6 °F /  9.2 °C 45.5 °F /  7.5 °C 30.1in /  1018.0hPa Calm   3mph /  4.8km/h 89% 0in /  0.0mm 0 W/m2
00:47 48.6 °F /  9.2 °C 45.5 °F /  7.5 °C 30.1in /  1018.0hPa South 0.9mph /  1.4km/h 3mph /  4.8km/h 89% 0in /  0.0mm 0 W/m2
00:52 48.6 °F /  9.2 °C 45.5 °F /  7.5 °C 30.1in /  1018.0hPa SSW 0.9mph /  1.4km/h 4mph /  6.4km/h 89% 0in /  0.0mm 0 W/m2
00:57 48.6 °F /  9.2 °C 45.5 °F /  7.5 °C 30.1in /  1018.0hPa WNW 2mph /  3.2km/h   89% 0in /  0.0mm 0 W/m2
01:02 48.6 °F /  9.2 °C 45.1 °F /  7.3 °C 30.1in /  1018.0hPa SSE 0.9mph /  1.4km/h 4mph /  6.4km/h 88% 0in /  0.0mm 0 W/m2
01:07 48.6 °F /  9.2 °C 45.1 °F /  7.3 °C 30.1in /  1018.0hPa North 2.9mph /  4.7km/h 9mph /  14.5km/h 88% 0in /  0.0mm 0 W/m2
01:12 48.6 °F /  9.2 °C 45.1 °F /  7.3 °C 30.1in /  1018.0hPa North 0.9mph /  1.4km/h 5mph /  8km/h 88% 0in /  0.0mm 0 W/m2
01:17 48.7 °F /  9.3 °C 45.3 °F /  7.4 °C 30.1in /  1018.0hPa Calm   9mph /  14.5km/h 88% 0in /  0.0mm 0 W/m2
01:22 48.7 °F /  9.3 °C 45.3 °F /  7.4 °C 30.1in /  1018.0hPa North 0.9mph /  1.4km/h 2mph /  3.2km/h 88% 0in /  0.0mm 0 W/m2
01:27 48.7 °F /  9.3 °C 45.3 °F /  7.4 °C 30.1in /  1018.3hPa Calm   1mph /  1.6km/h 88% 0in /  0.0mm 0 W/m2
01:32 48.7 °F /  9.3 °C 45.3 °F /  7.4 °C 30.1in /  1018.3hPa ESE 0.9mph /  1.4km/h 2mph /  3.2km/h 88% 0in /  0.0mm 0 W/m2
01:37 48.7 °F /  9.3 °C 45.3 °F /  7.4 °C 30.1in /  1018.3hPa NNE 0.9mph /  1.4km/h 3mph /  4.8km/h 88% 0in /  0.0mm 0 W/m2
01:42 48.7 °F /  9.3 °C 45.3 °F /  7.4 °C 30.1in /  1018.0hPa ESE 2mph /  3.2km/h 3mph /  4.8km/h 88% 0in /  0.0mm 0 W/m2
01:47 48.7 °F /  9.3 °C 45.3 °F /  7.4 °C 30.1in /  1018.3hPa North 2.9mph /  4.7km/h 3mph /  4.8km/h 88% 0in /  0.0mm 0 W/m2
01:52 48.7 °F /  9.3 °C 45.3 °F /  7.4 °C 30.1in /  1018.3hPa NNW 2mph /  3.2km/h 3mph /  4.8km/h 88% 0in /  0.0mm 0 W/m2
01:57 48.7 °F /  9.3 °C 45.3 °F /  7.4 °C 30.1in /  1018.3hPa North 2.9mph /  4.7km/h 4mph /  6.4km/h 88% 0in /  0.0mm 0 W/m2
02:02 48.7 °F /  9.3 °C 45.3 °F /  7.4 °C 30.1in /  1018.3hPa Calm   2mph /  3.2km/h 88% 0in /  0.0mm 0 W/m2
02:07 48.7 °F /  9.3 °C 45.3 °F /  7.4 °C 30.1in /  1018.3hPa East 0.9mph /  1.4km/h 3mph /  4.8km/h 88% 0in /  0.0mm 0 W/m2
02:12 48.7 °F /  9.3 °C 45.3 °F /  7.4 °C 30.1in /  1018.3hPa East 0.9mph /  1.4km/h 2mph /  3.2km/h 88% 0in /  0.0mm 0 W/m2
02:17 48.6 °F /  9.2 °C 45.1 °F /  7.3 °C 30.1in /  1018.3hPa North 0.9mph /  1.4km/h 4mph /  6.4km/h 88% 0in /  0.0mm 0 W/m2
02:22 48.7 °F /  9.3 °C 45.3 °F /  7.4 °C 30.1in /  1018.3hPa Calm   2mph /  3.2km/h 88% 0in /  0.0mm 0 W/m2
02:27 48.6 °F /  9.2 °C 45.1 °F /  7.3 °C 30.1in /  1018.3hPa SW 0.9mph /  1.4km/h 2mph /  3.2km/h 88% 0in /  0.0mm 0 W/m2
02:32 48.6 °F /  9.2 °C 45.1 °F /  7.3 °C 30.1in /  1018.3hPa Calm   1mph /  1.6km/h 88% 0in /  0.0mm 0 W/m2
02:38 48.7 °F /  9.3 °C 45.7 °F /  7.6 °C 30.1in /  1018.3hPa ENE 2mph /  3.2km/h 4mph /  6.4km/h 89% 0in /  0.0mm 0 W/m2
02:43 48.7 °F /  9.3 °C 45.7 °F /  7.6 °C 30.1in /  1018.3hPa North 2mph /  3.2km/h 3mph /  4.8km/h 89% 0in /  0.0mm 0 W/m2
02:48 48.7 °F /  9.3 °C 45.7 °F /  7.6 °C 30.1in /  1018.3hPa North 2.9mph /  4.7km/h 7mph /  11.3km/h 89% 0in /  0.0mm 0 W/m2
02:53 48.7 °F /  9.3 °C 45.7 °F /  7.6 °C 30.1in /  1018.3hPa WNW 2mph /  3.2km/h 6mph /  9.7km/h 89% 0in /  0.0mm 0 W/m2
02:58 48.7 °F /  9.3 °C 45.3 °F /  7.4 °C 30.1in /  1018.3hPa Calm   3mph /  4.8km/h 88% 0in /  0.0mm 0 W/m2
03:03 48.7 °F /  9.3 °C 45.3 °F /  7.4 °C 30.1in /  1018.3hPa Calm   3mph /  4.8km/h 88% 0in /  0.0mm 0 W/m2
03:08 48.7 °F /  9.3 °C 45.3 °F /  7.4 °C 30.1in /  1018.3hPa NW 2mph /  3.2km/h 3mph /  4.8km/h 88% 0in /  0.0mm 0 W/m2
03:13 48.7 °F /  9.3 °C 45.3 °F /  7.4 °C 30.1in /  1018.3hPa West 0.9mph /  1.4km/h 3mph /  4.8km/h 88% 0in /  0.0mm 0 W/m2
03:18 48.7 °F /  9.3 °C 45.7 °F /  7.6 °C 30.1in /  1018.3hPa Calm   3mph /  4.8km/h 89% 0in /  0.0mm 0 W/m2
03:23 48.7 °F /  9.3 °C 45.3 °F /  7.4 °C 30.1in /  1018.3hPa ENE 2mph /  3.2km/h 3mph /  4.8km/h 88% 0in /  0.0mm 0 W/m2
03:28 48.7 °F /  9.3 °C 45.3 °F /  7.4 °C 30.1in /  1018.3hPa WSW 0.9mph /  1.4km/h 1mph /  1.6km/h 88% 0in /  0.0mm 0 W/m2
03:33 48.7 °F /  9.3 °C 45.3 °F /  7.4 °C 30.1in /  1018.3hPa West 2mph /  3.2km/h 2mph /  3.2km/h 88% 0in /  0.0mm 0 W/m2
03:38 48.7 °F /  9.3 °C 45.3 °F /  7.4 °C 30.1in /  1018.3hPa NE 0.9mph /  1.4km/h 2mph /  3.2km/h 88% 0in /  0.0mm 0 W/m2
03:43 48.7 °F /  9.3 °C 45.3 °F /  7.4 °C 30.1in /  1018.3hPa Calm   2mph /  3.2km/h 88% 0in /  0.0mm 0 W/m2
03:48 48.7 °F /  9.3 °C 45.3 °F /  7.4 °C 30.1in /  1018.3hPa Calm   3mph /  4.8km/h 88% 0in /  0.0mm 0 W/m2
03:53 48.7 °F /  9.3 °C 45.3 °F /  7.4 °C 30.1in /  1018.3hPa Calm   2mph /  3.2km/h 88% 0in /  0.0mm 0 W/m2
03:58 48.7 °F /  9.3 °C 45.3 °F /  7.4 °C 30.1in /  1018.3hPa Calm   4mph /  6.4km/h 88% 0in /  0.0mm 0 W/m2
04:03 48.7 °F /  9.3 °C 45.3 °F /  7.4 °C 30.1in /  1018.3hPa NNW 0.9mph /  1.4km/h 3mph /  4.8km/h 88% 0in /  0.0mm 0 W/m2
04:08 48.7 °F /  9.3 °C 45.3 °F /  7.4 °C 30.1in /  1018.0hPa Calm   4mph /  6.4km/h 88% 0in /  0.0mm 0 W/m2
04:13 48.7 °F /  9.3 °C 45.3 °F /  7.4 °C 30.1in /  1018.0hPa Calm   1mph /  1.6km/h 88% 0in /  0.0mm 0 W/m2
04:18 48.7 °F /  9.3 °C 45.7 °F /  7.6 °C 30.1in /  1018.0hPa Calm   2mph /  3.2km/h 89% 0in /  0.0mm 0 W/m2
04:23 48.7 °F /  9.3 °C 45.3 °F /  7.4 °C 30.1in /  1018.0hPa NW 0.9mph /  1.4km/h 3mph /  4.8km/h 88% 0in /  0.0mm 0 W/m2
04:28 48.7 °F /  9.3 °C 45.3 °F /  7.4 °C 30.1in /  1018.0hPa Calm   2mph /  3.2km/h 88% 0in /  0.0mm 0 W/m2
04:34 48.7 °F /  9.3 °C 45.3 °F /  7.4 °C 30.1in /  1018.0hPa WNW 2mph /  3.2km/h   88% 0in /  0.0mm 0 W/m2
04:39 48.7 °F /  9.3 °C 45.3 °F /  7.4 °C 30.1in /  1018.0hPa Calm   2mph /  3.2km/h 88% 0in /  0.0mm 0 W/m2
04:44 48.7 °F /  9.3 °C 45.3 °F /  7.4 °C 30.1in /  1018.0hPa Calm   3mph /  4.8km/h 88% 0in /  0.0mm 0 W/m2
04:49 48.7 °F /  9.3 °C 45.3 °F /  7.4 °C 30.1in /  1018.0hPa NNW 2.9mph /  4.7km/h 4mph /  6.4km/h 88% 0in /  0.0mm 0 W/m2
04:54 48.7 °F /  9.3 °C 45.3 °F /  7.4 °C 30.1in /  1018.0hPa NNW 2mph /  3.2km/h 3mph /  4.8km/h 88% 0in /  0.0mm 0 W/m2
04:59 48.7 °F /  9.3 °C 45.3 °F /  7.4 °C 30.1in /  1018.0hPa North 2.9mph /  4.7km/h 9mph /  14.5km/h 88% 0in /  0.0mm 0 W/m2
05:04 48.7 °F /  9.3 °C 45.3 °F /  7.4 °C 30.1in /  1018.3hPa North 0.9mph /  1.4km/h 2mph /  3.2km/h 88% 0in /  0.0mm 0 W/m2
05:09 48.7 °F /  9.3 °C 45.3 °F /  7.4 °C 30.1in /  1018.3hPa Calm   9mph /  14.5km/h 88% 0in /  0.0mm 0 W/m2
05:14 48.7 °F /  9.3 °C 45.3 °F /  7.4 °C 30.1in /  1018.3hPa North 2.9mph /  4.7km/h 5mph /  8km/h 88% 0in /  0.0mm 0 W/m2
05:19 48.7 °F /  9.3 °C 45.3 °F /  7.4 °C 30.1in /  1018.3hPa North 0.9mph /  1.4km/h 3mph /  4.8km/h 88% 0in /  0.0mm 0 W/m2
05:24 48.7 °F /  9.3 °C 45.3 °F /  7.4 °C 30.1in /  1018.0hPa East 2mph /  3.2km/h 6mph /  9.7km/h 88% 0in /  0.0mm 0 W/m2
05:29 48.7 °F /  9.3 °C 45.3 °F /  7.4 °C 30.1in /  1018.0hPa East 0.9mph /  1.4km/h 3mph /  4.8km/h 88% 0in /  0.0mm 0 W/m2
05:34 48.7 °F /  9.3 °C 45.3 °F /  7.4 °C 30.1in /  1018.3hPa Calm   4mph /  6.4km/h 88% 0in /  0.0mm 0 W/m2
05:39 48.7 °F /  9.3 °C 45.3 °F /  7.4 °C 30.1in /  1018.3hPa North 0.9mph /  1.4km/h 2mph /  3.2km/h 88% 0in /  0.0mm 0 W/m2
05:44 48.7 °F /  9.3 °C 45.3 °F /  7.4 °C 30.1in /  1018.3hPa Calm   2mph /  3.2km/h 88% 0in /  0.0mm 0 W/m2
05:49 48.7 °F /  9.3 °C 45.3 °F /  7.4 °C 30.1in /  1018.3hPa Calm   3mph /  4.8km/h 88% 0in /  0.0mm 0 W/m2
05:54 48.7 °F /  9.3 °C 45.3 °F /  7.4 °C 30.1in /  1018.3hPa SSE 0.9mph /  1.4km/h 2mph /  3.2km/h 88% 0in /  0.0mm 0 W/m2
05:59 48.7 °F /  9.3 °C 45.3 °F /  7.4 °C 30.1in /  1018.3hPa Calm   1mph /  1.6km/h 88% 0in /  0.0mm 0 W/m2
06:04 48.7 °F /  9.3 °C 45.3 °F /  7.4 °C 30.1in /  1018.3hPa NNW 0.9mph /  1.4km/h 3mph /  4.8km/h 88% 0in /  0.0mm 0 W/m2
06:09 48.7 °F /  9.3 °C 45.3 °F /  7.4 °C 30.1in /  1018.3hPa NNE 0.9mph /  1.4km/h 3mph /  4.8km/h 88% 0in /  0.0mm 0 W/m2
06:14 48.7 °F /  9.3 °C 45.3 °F /  7.4 °C 30.1in /  1018.3hPa NNE 2mph /  3.2km/h 3mph /  4.8km/h 88% 0in /  0.0mm 0 W/m2
06:19 48.7 °F /  9.3 °C 45.3 °F /  7.4 °C 30.1in /  1018.3hPa Calm   5mph /  8km/h 88% 0in /  0.0mm 0 W/m2
06:24 48.7 °F /  9.3 °C 45.3 °F /  7.4 °C 30.1in /  1018.3hPa Calm   4mph /  6.4km/h 88% 0in /  0.0mm 0 W/m2
06:29 48.7 °F /  9.3 °C 45.3 °F /  7.4 °C 30.1in /  1018.3hPa Calm   2mph /  3.2km/h 88% 0in /  0.0mm 0 W/m2
06:34 48.6 °F /  9.2 °C 45.1 °F /  7.3 °C 30.1in /  1018.3hPa NNW 0.9mph /  1.4km/h 4mph /  6.4km/h 88% 0in /  0.0mm 0 W/m2
06:39 48.6 °F /  9.2 °C 45.1 °F /  7.3 °C 30.1in /  1018.3hPa NW 0.9mph /  1.4km/h 3mph /  4.8km/h 88% 0in /  0.0mm 0 W/m2
06:44 48.6 °F /  9.2 °C 45.1 °F /  7.3 °C 30.1in /  1018.3hPa NNW 4mph /  6.4km/h 6mph /  9.7km/h 88% 0in /  0.0mm 0 W/m2
06:49 48.6 °F /  9.2 °C 45.1 °F /  7.3 °C 30.1in /  1018.3hPa East 2.9mph /  4.7km/h 3mph /  4.8km/h 88% 0in /  0.0mm 0 W/m2
06:54 48.6 °F /  9.2 °C 45.1 °F /  7.3 °C 30.1in /  1018.3hPa NE 2mph /  3.2km/h 3mph /  4.8km/h 88% 0in /  0.0mm 0 W/m2
Juneau County Weather
Compliments of Weather Underground - 2 mb